Time,TemperatureF,DewpointF,PressureIn,WindDirection,WindDirectionDegrees,WindSpeedMPH,WindSpeedGustMPH,Humidity,HourlyPrecipIn,Conditions,Clouds,dailyrainin,SoftwareType,DateUTC
2013-05-07 00:00:00,46.3,45.5,29.86,NNW,346,0.0,3.0,97,0.00,RA,,0.00,WeatherDisplay:10.37,2013-05-07 04:00:00,
2013-05-07 01:00:00,45.9,45.1,29.86,NNW,346,0.0,3.0,97,0.00,OVC,,0.00,WeatherDisplay:10.37,2013-05-07 05:00:00,
2013-05-07 02:00:00,44.5,43.4,29.85,NNW,346,0.0,0.0,96,0.01,BKN,,0.01,WeatherDisplay:10.37,2013-05-07 06:00:00,
2013-05-07 03:00:00,44.1,43.3,29.84,North,1,0.0,2.0,97,0.00,OVC,,0.01,WeatherDisplay:10.37,2013-05-07 07:00:00,
2013-05-07 04:00:00,43.7,42.9,29.84,North,1,0.0,0.0,97,0.00,OVC,,0.01,WeatherDisplay:10.37,2013-05-07 08:00:00,
2013-05-07 05:00:00,42.1,41.3,29.84,North,1,0.0,0.0,97,0.00,BKN,,0.01,WeatherDisplay:10.37,2013-05-07 09:00:00,
2013-05-07 06:00:00,41.7,40.9,29.85,North,3,0.0,0.0,97,0.00,OVC,,0.01,WeatherDisplay:10.37,2013-05-07 10:00:00,
2013-05-07 07:00:00,41.4,40.6,29.87,North,1,0.0,0.0,97,0.00,OVC,,0.01,WeatherDisplay:10.37,2013-05-07 11:00:00,
2013-05-07 08:00:00,40.4,39.6,29.89,North,1,0.0,0.0,97,0.00,OVC,,0.01,WeatherDisplay:10.37,2013-05-07 12:00:00,
2013-05-07 09:00:00,42.0,41.2,29.89,North,1,0.0,0.0,97,0.00,SCT,,0.01,WeatherDisplay:10.37,2013-05-07 13:00:00,
2013-05-07 10:00:00,47.9,47.0,29.89,North,2,0.0,0.0,97,0.00,CLR,,0.01,WeatherDisplay:10.37,2013-05-07 14:00:00,
2013-05-07 11:00:00,60.0,49.0,29.89,NE,56,3.0,8.0,67,0.05,BKN,,0.06,WeatherDisplay:10.37,2013-05-07 15:00:00,
2013-05-07 12:00:00,62.7,47.7,29.89,NE,48,5.0,12.0,58,0.01,BKN,,0.07,WeatherDisplay:10.37,2013-05-07 16:00:00,
2013-05-07 13:00:00,64.0,47.0,29.88,NE,55,3.0,12.0,54,0.00,BKN,,0.07,WeatherDisplay:10.37,2013-05-07 17:00:00,
2013-05-07 14:00:00,66.4,49.2,29.87,NE,39,6.0,14.0,54,0.01,SCT,,0.08,WeatherDisplay:10.37,2013-05-07 18:00:00,
2013-05-07 15:00:00,67.1,45.0,29.85,ENE,64,5.0,13.0,45,0.00,CLR,,0.08,WeatherDisplay:10.37,2013-05-07 19:00:00,
2013-05-07 16:00:00,68.4,46.2,29.84,NE,54,6.0,13.0,45,0.01,SCT,,0.09,WeatherDisplay:10.37,2013-05-07 20:00:00,
2013-05-07 17:00:00,66.4,47.2,29.84,NNE,31,7.0,13.0,50,0.00,OVC,,0.09,WeatherDisplay:10.37,2013-05-07 21:00:00,
2013-05-07 18:00:00,66.0,43.5,29.85,NNE,32,2.0,13.0,44,0.00,BKN,,0.09,WeatherDisplay:10.37,2013-05-07 22:00:00,
2013-05-07 19:00:00,64.1,46.6,29.85,NE,35,6.0,13.0,53,0.00,SCT,,0.09,WeatherDisplay:10.37,2013-05-07 23:00:00,
2013-05-07 20:00:00,61.1,49.2,29.87,NNE,20,0.0,12.0,65,0.00,CLR,,0.09,WeatherDisplay:10.37,2013-05-08 00:00:00,
2013-05-07 21:00:00,57.9,51.8,29.89,NNE,24,0.0,4.0,80,0.00,OVC,,0.09,WeatherDisplay:10.37,2013-05-08 01:00:00,
2013-05-07 22:00:00,54.1,49.7,29.90,NNE,24,0.0,1.0,85,0.00,BKN,,0.09,WeatherDisplay:10.37,2013-05-08 02:00:00,
2013-05-07 23:00:00,52.5,49.7,29.91,NNE,24,0.0,0.0,90,0.00,OVC,,0.09,WeatherDisplay:10.37,2013-05-08 03:00:00,